Time;durP1;ratioP1;P1;durP2;ratioP2;P2;SDS_P1;SDS_P2;PMS_P1;PMS_P2;Temp;Humidity;BMP_temperature;BMP_pressure;BME280_temperature;BME280_humidity;BME280_pressure;Samples;Min_cycle;Max_cycle;Signal;HPM_P1;HPM_P2
2022/02/22 00:01:56;;;;;;;7.15;2.72;;;;;;;3.43;75.19;99103.93;1662107;84;21087;-69
2022/02/22 00:04:22;;;;;;;8.18;2.87;;;;;;;3.42;75.19;99104.91;1682335;85;21019;-69
2022/02/22 00:06:48;;;;;;;5.60;2.45;;;;;;;3.40;75.20;99104.25;1683667;85;21039;-69
2022/02/22 00:09:14;;;;;;;17.87;4.35;;;;;;;3.42;75.21;99112.81;1643359;85;21017;-69
2022/02/22 00:11:40;;;;;;;8.55;3.05;;;;;;;3.42;75.21;99116.76;1641082;87;21007;-69
2022/02/22 00:14:06;;;;;;;10.08;2.98;;;;;;;3.40;75.24;99108.69;1641405;86;21144;-69
2022/02/22 00:16:32;;;;;;;7.55;3.27;;;;;;;3.40;75.25;99117.42;1641069;87;21016;-69
2022/02/22 00:18:58;;;;;;;14.25;4.10;;;;;;;3.40;75.27;99126.64;1641438;87;21625;-69
2022/02/22 00:21:24;;;;;;;11.03;4.00;;;;;;;3.41;75.29;99126.95;1641305;86;20975;-69
2022/02/22 00:23:50;;;;;;;9.98;3.12;;;;;;;3.40;75.28;99127.96;1641555;85;21611;-69
2022/02/22 00:26:16;;;;;;;11.20;3.00;;;;;;;3.40;75.28;99133.23;1641354;87;21578;-69
2022/02/22 00:28:42;;;;;;;9.35;3.33;;;;;;;3.40;75.35;99130.59;1641122;87;21566;-69
2022/02/22 00:31:08;;;;;;;8.18;4.22;;;;;;;3.41;75.38;99144.60;1641449;87;21030;-69
2022/02/22 00:33:35;;;;;;;9.33;3.42;;;;;;;3.40;75.39;99145.09;1641474;87;21622;-69
2022/02/22 00:36:01;;;;;;;7.45;2.42;;;;;;;3.40;75.40;99149.04;1640982;87;21090;-69
2022/02/22 00:38:27;;;;;;;7.25;2.75;;;;;;;3.39;75.43;99152.65;1668449;85;21129;-69
2022/02/22 00:40:53;;;;;;;10.20;4.17;;;;;;;3.40;75.48;99154.31;1668612;85;21063;-69
2022/02/22 00:43:19;;;;;;;4.47;2.40;;;;;;;3.40;75.53;99169.29;1668538;86;21035;-69
2022/02/22 00:45:45;;;;;;;9.83;4.78;;;;;;;3.41;75.59;99177.54;1668446;86;21114;-69
2022/02/22 00:48:11;;;;;;;12.95;5.40;;;;;;;3.39;75.63;99174.22;1668662;86;21523;-69
2022/02/22 00:50:38;;;;;;;11.30;4.10;;;;;;;3.39;75.67;99176.36;1668463;85;21753;-69
2022/02/22 00:53:04;;;;;;;8.93;3.92;;;;;;;3.38;75.69;99181.29;1668546;86;21728;-69
2022/02/22 00:55:32;;;;;;;22.00;7.55;;;;;;;3.38;75.74;99191.83;1694620;84;21033;-69
2022/02/22 00:57:58;;;;;;;16.02;3.75;;;;;;;3.39;75.76;99189.54;1696255;84;21010;-69
2022/02/22 01:00:24;;;;;;;9.18;2.72;;;;;;;3.39;75.83;99204.03;1696248;84;21321;-69
2022/02/22 01:02:51;;;;;;;7.72;2.80;;;;;;;3.35;75.87;99201.36;1696531;84;21158;-69
2022/02/22 01:05:18;;;;;;;10.60;2.85;;;;;;;3.31;75.93;99202.64;1695797;84;21061;-69
2022/02/22 01:07:44;;;;;;;8.65;3.30;;;;;;;3.27;76.01;99197.34;1712557;83;21016;-69
2022/02/22 01:10:10;;;;;;;5.95;2.77;;;;;;;3.25;76.13;99216.44;1723241;81;21056;-69
2022/02/22 01:12:36;;;;;;;11.78;2.87;;;;;;;3.24;76.21;99206.03;1722989;83;21005;-69
2022/02/22 01:15:03;;;;;;;10.08;3.02;;;;;;;3.24;76.28;99198.97;1726216;83;21516;-70
2022/02/22 01:17:29;;;;;;;7.58;2.60;;;;;;;3.24;76.35;99196.33;1730526;83;21020;-70
2022/02/22 01:19:55;;;;;;;9.68;3.87;;;;;;;3.25;76.47;99215.12;1730949;82;21028;-69
2022/02/22 01:22:22;;;;;;;9.70;2.72;;;;;;;3.25;76.53;99220.39;1730606;82;21334;-69
2022/02/22 01:24:48;;;;;;;10.00;6.15;;;;;;;3.26;76.60;99222.53;1730916;83;21027;-69
2022/02/22 01:27:13;;;;;;;16.48;7.65;;;;;;;3.26;76.68;99218.09;1731064;83;21188;-69
2022/02/22 01:29:40;;;;;;;10.65;5.12;;;;;;;3.26;76.77;99227.32;1730567;83;21004;-69
2022/02/22 01:32:07;;;;;;;9.20;3.35;;;;;;;3.25;76.81;99224.34;1731068;83;21008;-69
2022/02/22 01:34:33;;;;;;;9.13;2.30;;;;;;;3.25;76.87;99229.61;1731033;82;21498;-69
2022/02/22 01:36:59;;;;;;;10.08;2.60;;;;;;;3.26;76.96;99237.03;1731178;82;21469;-69
2022/02/22 01:39:25;;;;;;;9.10;2.70;;;;;;;3.25;77.01;99240.14;1730827;82;21081;-69
2022/02/22 01:41:52;;;;;;;9.48;3.92;;;;;;;3.26;77.09;99245.77;1731036;82;21063;-70
2022/02/22 01:44:21;;;;;;;7.47;2.02;;;;;;;3.26;77.16;99252.34;1731064;82;21103;-69
2022/02/22 01:47:00;;;;;;;9.83;3.25;;;;;;;3.26;77.26;99244.45;1729111;83;21034;-69
2022/02/22 01:49:26;;;;;;;9.38;2.80;;;;;;;3.27;77.35;99253.98;1720753;82;21022;-69
2022/02/22 01:51:52;;;;;;;11.25;3.20;;;;;;;3.26;77.41;99262.88;1721533;83;21127;-69
2022/02/22 01:54:20;;;;;;;5.20;2.02;;;;;;;3.28;77.47;99257.45;1712310;82;21099;-69
2022/02/22 01:56:47;;;;;;;8.25;2.10;;;;;;;3.27;77.53;99261.88;1696538;84;21105;-69
2022/02/22 01:59:13;;;;;;;7.72;3.58;;;;;;;3.28;77.59;99270.13;1682133;85;21026;-69
2022/02/22 02:01:39;;;;;;;9.18;5.00;;;;;;;3.28;77.66;99274.57;1682090;85;21029;-69
2022/02/22 02:04:06;;;;;;;9.10;5.95;;;;;;;3.29;77.73;99278.39;1682217;85;21159;-69
2022/02/22 02:06:34;;;;;;;9.30;5.22;;;;;;;3.30;77.79;99284.00;1669111;85;21519;-69
2022/02/22 02:09:00;;;;;;;8.83;2.72;;;;;;;3.30;77.84;99280.05;1676415;85;21027;-69
2022/02/22 02:11:26;;;;;;;6.75;2.25;;;;;;;3.31;77.88;99281.69;1676368;84;21073;-69
2022/02/22 02:13:52;;;;;;;9.45;2.92;;;;;;;3.32;77.96;99296.52;1685988;83;21062;-69
2022/02/22 02:16:18;;;;;;;9.88;2.58;;;;;;;3.34;78.02;99300.34;1674942;84;21041;-69
2022/02/22 02:18:44;;;;;;;21.25;4.90;;;;;;;3.34;78.09;99303.77;1663134;84;21019;-69
2022/02/22 02:21:10;;;;;;;7.20;2.10;;;;;;;3.35;78.10;99305.44;1671192;85;21496;-70
2022/02/22 02:23:36;;;;;;;11.93;2.35;;;;;;;3.36;78.15;99307.59;1662796;86;21030;-69
2022/02/22 02:26:03;;;;;;;6.92;2.30;;;;;;;3.36;78.20;99312.86;1662642;86;21546;-69
2022/02/22 02:28:29;;;;;;;10.38;2.95;;;;;;;3.36;78.26;99315.01;1662827;86;21897;-69
2022/02/22 02:30:55;;;;;;;10.40;3.12;;;;;;;3.38;78.28;99320.94;1662580;86;21015;-69
2022/02/22 02:33:21;;;;;;;11.25;3.10;;;;;;;3.40;78.32;99332.17;1663081;86;20911;-69
2022/02/22 02:35:47;;;;;;;11.00;2.65;;;;;;;3.42;78.34;99322.30;1662492;86;21015;-69
2022/02/22 02:38:13;;;;;;;16.80;3.72;;;;;;;3.44;78.37;99321.67;1662988;86;21034;-69
2022/02/22 02:40:39;;;;;;;6.67;3.72;;;;;;;3.44;78.41;99334.86;1662804;86;21162;-69
2022/02/22 02:43:05;;;;;;;12.60;5.85;;;;;;;3.43;78.45;99333.19;1662722;86;21014;-69
2022/02/22 02:45:31;;;;;;;17.57;5.72;;;;;;;3.44;78.49;99334.02;1662933;85;21035;-69
2022/02/22 02:47:57;;;;;;;8.93;2.77;;;;;;;3.44;78.50;99340.13;1662890;86;21487;-69
2022/02/22 02:50:23;;;;;;;12.30;2.50;;;;;;;3.43;78.53;99338.46;1663005;86;21002;-69
2022/02/22 02:52:49;;;;;;;8.58;2.20;;;;;;;3.43;78.55;99338.46;1662651;86;21452;-70
2022/02/22 02:55:15;;;;;;;7.78;2.98;;;;;;;3.44;78.60;99334.86;1662848;86;20994;-70
2022/02/22 02:57:41;;;;;;;10.03;2.87;;;;;;;3.44;78.63;99337.48;1662901;86;21023;-69
2022/02/22 03:00:08;;;;;;;10.48;2.20;;;;;;;3.45;78.68;99342.24;1662581;86;21102;-69
2022/02/22 03:02:34;;;;;;;15.15;2.22;;;;;;;3.46;78.71;99343.42;1663032;86;21011;-69
2022/02/22 03:05:01;;;;;;;10.10;1.87;;;;;;;3.49;78.74;99354.14;1662985;86;21141;-69
2022/02/22 03:07:27;;;;;;;9.15;1.98;;;;;;;3.49;78.77;99354.14;1662803;86;21570;-69
2022/02/22 03:09:53;;;;;;;6.20;1.50;;;;;;;3.50;78.77;99359.77;1662848;86;21636;-69
2022/02/22 03:12:19;;;;;;;3.83;1.92;;;;;;;3.51;78.85;99355.67;1662836;86;21596;-69
2022/02/22 03:14:49;;;;;;;12.55;3.22;;;;;;;3.53;78.87;99352.39;1662799;84;21039;-70
2022/02/22 03:17:15;;;;;;;26.97;8.05;;;;;;;3.55;78.90;99359.33;1663257;86;21821;-69
2022/02/22 03:19:41;;;;;;;15.30;5.80;;;;;;;3.56;78.93;99376.77;1663305;86;21039;-70
2022/02/22 03:22:07;;;;;;;13.78;3.55;;;;;;;3.55;78.96;99371.19;1663086;86;21087;-69
2022/02/22 03:24:33;;;;;;;9.15;4.03;;;;;;;3.57;78.99;99377.12;1668216;84;21059;-70
2022/02/22 03:26:59;;;;;;;11.80;4.08;;;;;;;3.58;78.99;99382.73;1675517;84;20916;-69
2022/02/22 03:29:25;;;;;;;19.85;5.00;;;;;;;3.61;79.02;99385.07;1691340;84;21165;-70
2022/02/22 03:31:51;;;;;;;24.43;6.20;;;;;;;3.64;79.00;99395.31;1691113;84;21043;-69
2022/02/22 03:34:17;;;;;;;14.47;4.47;;;;;;;3.66;79.01;99394.17;1691215;84;21499;-69
2022/02/22 03:36:44;;;;;;;12.47;3.42;;;;;;;3.68;79.00;99394.87;1691176;84;21491;-70
2022/02/22 03:39:10;;;;;;;17.60;3.47;;;;;;;3.67;79.05;99401.11;1691117;84;21010;-69
2022/02/22 03:41:36;;;;;;;14.05;2.98;;;;;;;3.67;79.03;99408.19;1691579;84;21321;-69
2022/02/22 03:44:03;;;;;;;11.28;2.35;;;;;;;3.67;79.05;99408.19;1690997;84;21016;-69
2022/02/22 03:46:29;;;;;;;10.58;2.25;;;;;;;3.68;79.06;99412.48;1691457;84;21121;-69
2022/02/22 03:48:55;;;;;;;8.93;1.85;;;;;;;3.68;79.06;99423.03;1691093;84;21048;-69
2022/02/22 03:51:21;;;;;;;8.60;1.75;;;;;;;3.70;79.09;99423.70;1691262;84;20931;-69
2022/02/22 03:53:47;;;;;;;10.98;2.15;;;;;;;3.70;79.12;99439.52;1680792;84;21576;-69
2022/02/22 03:56:13;;;;;;;7.45;2.30;;;;;;;3.69;79.16;99433.92;1686911;84;21046;-69
2022/02/22 03:58:39;;;;;;;8.65;2.75;;;;;;;3.68;79.18;99446.77;1691082;84;21083;-70
2022/02/22 04:01:05;;;;;;;10.82;5.00;;;;;;;3.66;79.20;99450.05;1691157;84;21023;-69
2022/02/22 04:03:31;;;;;;;12.90;4.80;;;;;;;3.65;79.24;99450.53;1691306;84;21054;-69
2022/02/22 04:05:57;;;;;;;12.30;4.87;;;;;;;3.66;79.27;99450.84;1691251;84;21038;-69
2022/02/22 04:08:23;;;;;;;13.18;3.12;;;;;;;3.65;79.32;99453.17;1691307;84;21023;-70
2022/02/22 04:10:50;;;;;;;13.55;2.67;;;;;;;3.65;79.34;99455.80;1690963;83;21035;-69
2022/02/22 04:13:16;;;;;;;9.80;2.22;;;;;;;3.66;79.38;99456.64;1667536;84;21507;-69
2022/02/22 04:15:42;;;;;;;8.10;2.98;;;;;;;3.67;79.40;99468.82;1700720;83;21025;-69
2022/02/22 04:18:08;;;;;;;12.47;3.20;;;;;;;3.66;79.44;99469.82;1720317;83;21226;-69
2022/02/22 04:20:34;;;;;;;13.35;3.00;;;;;;;3.66;79.49;99477.73;1720594;83;21525;-69
2022/02/22 04:23:00;;;;;;;9.10;3.50;;;;;;;3.66;79.51;99484.31;1720492;83;20974;-69
2022/02/22 04:25:26;;;;;;;11.50;3.40;;;;;;;3.67;79.57;99488.11;1720709;83;21572;-69
2022/02/22 04:27:52;;;;;;;13.55;2.72;;;;;;;3.69;79.58;99482.70;1720479;83;21461;-70
2022/02/22 04:30:18;;;;;;;11.15;2.75;;;;;;;3.71;79.63;99475.45;1720618;83;22034;-70
2022/02/22 04:32:46;;;;;;;15.55;3.37;;;;;;;3.71;79.66;99488.64;1711914;83;21047;-70
2022/02/22 04:35:12;;;;;;;8.53;2.05;;;;;;;3.70;79.67;99484.34;1678703;84;21080;-70
2022/02/22 04:37:38;;;;;;;13.88;5.75;;;;;;;3.69;79.70;99496.72;1644345;87;20971;-70
2022/02/22 04:40:05;;;;;;;9.30;4.70;;;;;;;3.68;79.76;99506.08;1644263;87;21571;-70
2022/02/22 04:42:31;;;;;;;13.50;4.65;;;;;;;3.67;79.75;99505.73;1644278;87;21784;-70
2022/02/22 04:44:57;;;;;;;16.37;6.95;;;;;;;3.66;79.79;99500.94;1643850;87;20994;-70
2022/02/22 04:47:23;;;;;;;9.10;3.02;;;;;;;3.65;79.83;99502.42;1644155;87;20930;-70
2022/02/22 04:49:49;;;;;;;6.92;2.75;;;;;;;3.64;79.86;99507.34;1643999;87;20907;-70
2022/02/22 04:52:15;;;;;;;9.15;2.20;;;;;;;3.65;79.88;99507.70;1644220;87;20911;-70
2022/02/22 04:54:41;;;;;;;7.75;2.60;;;;;;;3.68;79.92;99513.50;1672947;83;21253;-70
2022/02/22 04:57:07;;;;;;;11.43;2.50;;;;;;;3.70;79.95;99521.25;1694728;84;21026;-70
2022/02/22 04:59:34;;;;;;;9.55;2.47;;;;;;;3.72;79.97;99529.86;1688110;84;21071;-70
2022/02/22 05:02:00;;;;;;;6.30;1.92;;;;;;;3.75;79.98;99534.83;1694102;84;21481;-70
2022/02/22 05:04:26;;;;;;;8.08;2.15;;;;;;;3.76;79.99;99540.45;1692500;84;21087;-70
2022/02/22 05:06:52;;;;;;;8.08;1.77;;;;;;;3.77;80.03;99539.45;1682664;84;21173;-70
2022/02/22 05:09:18;;;;;;;9.10;2.58;;;;;;;3.76;80.04;99549.69;1666485;86;21043;-70
2022/02/22 05:11:44;;;;;;;11.97;3.40;;;;;;;3.79;80.05;99554.66;1666171;84;21415;-70
2022/02/22 05:14:10;;;;;;;7.92;2.90;;;;;;;3.79;80.08;99562.56;1666523;86;21100;-70
2022/02/22 05:16:37;;;;;;;11.10;4.95;;;;;;;3.81;80.10;99550.05;1673870;84;21086;-70
2022/02/22 05:19:03;;;;;;;6.80;4.08;;;;;;;3.81;80.13;99556.16;1677345;85;21563;-70
2022/02/22 05:21:29;;;;;;;12.30;3.12;;;;;;;3.82;80.15;99557.00;1690668;84;21557;-70
2022/02/22 05:23:55;;;;;;;7.15;3.95;;;;;;;3.84;80.18;99560.30;1688132;85;21078;-70
2022/02/22 05:26:21;;;;;;;20.90;9.13;;;;;;;3.85;80.21;99564.61;1669125;86;21065;-70
2022/02/22 05:28:47;;;;;;;13.03;4.42;;;;;;;3.86;80.25;99562.31;1688177;85;21102;-70
2022/02/22 05:31:14;;;;;;;9.78;3.00;;;;;;;3.86;80.28;99566.28;1688209;85;21150;-70
2022/02/22 05:33:40;;;;;;;12.93;4.28;;;;;;;3.85;80.29;99566.76;1687345;85;21036;-70
2022/02/22 05:36:06;;;;;;;33.83;11.83;;;;;;;3.85;80.31;99577.30;1686513;85;21510;-70
2022/02/22 05:38:32;;;;;;;14.83;5.78;;;;;;;3.85;80.33;99581.27;1675250;85;21038;-70
2022/02/22 05:40:58;;;;;;;12.25;4.62;;;;;;;3.85;80.34;99589.17;1705003;83;21049;-70
2022/02/22 05:43:24;;;;;;;15.55;8.55;;;;;;;3.85;80.39;99589.66;1688871;85;21101;-70
2022/02/22 05:45:52;;;;;;;18.10;6.12;;;;;;;3.87;80.39;99598.27;1688747;85;21703;-70
2022/02/22 05:48:18;;;;;;;16.12;6.30;;;;;;;3.87;80.42;99604.87;1688709;85;21040;-70
2022/02/22 05:50:44;;;;;;;13.15;3.47;;;;;;;3.86;80.44;99607.16;1688762;85;21706;-70
2022/02/22 05:53:10;;;;;;;8.43;4.72;;;;;;;3.83;80.48;99608.77;1674612;85;21101;-70
2022/02/22 05:55:37;;;;;;;8.95;4.00;;;;;;;3.83;80.55;99624.59;1688336;84;21857;-70
2022/02/22 05:58:04;;;;;;;14.90;6.15;;;;;;;3.82;80.58;99628.19;1685934;84;21064;-70
2022/02/22 06:00:30;;;;;;;12.03;4.95;;;;;;;3.82;80.63;99636.11;1686614;85;21029;-70
2022/02/22 06:02:56;;;;;;;12.28;6.22;;;;;;;3.82;80.67;99630.83;1686324;85;21593;-70
2022/02/22 06:05:23;;;;;;;13.58;4.47;;;;;;;3.81;80.72;99629.16;1686288;85;21560;-70
2022/02/22 06:07:49;;;;;;;11.18;4.33;;;;;;;3.79;80.77;99644.31;1686510;85;21154;-70
2022/02/22 06:10:15;;;;;;;12.10;4.42;;;;;;;3.78;80.79;99646.11;1685700;85;21080;-70
2022/02/22 06:12:45;;;;;;;12.88;4.20;;;;;;;3.79;80.81;99655.70;1684237;83;21062;-70
2022/02/22 06:15:11;;;;;;;9.68;4.15;;;;;;;3.82;80.84;99655.88;1690522;84;21082;-70
2022/02/22 06:17:41;;;;;;;11.53;4.15;;;;;;;3.83;80.88;99660.19;1660121;86;21034;-70
2022/02/22 06:20:09;;;;;;;11.68;3.02;;;;;;;3.84;80.91;99673.70;1659291;86;21577;-70
2022/02/22 06:22:35;;;;;;;10.65;2.80;;;;;;;3.85;80.93;99673.56;1659900;86;21022;-71
2022/02/22 06:25:06;;;;;;;12.30;3.12;;;;;;;3.87;80.97;99668.16;1659693;86;21085;-70
2022/02/22 06:27:32;;;;;;;20.15;5.50;;;;;;;3.90;81.00;99675.78;1659689;86;21660;-70
2022/02/22 06:29:58;;;;;;;12.63;3.25;;;;;;;3.93;81.04;99682.08;1659875;86;21120;-70
2022/02/22 06:32:24;;;;;;;9.10;3.15;;;;;;;3.94;81.04;99681.11;1659550;86;21176;-70
2022/02/22 06:34:50;;;;;;;13.93;4.90;;;;;;;3.96;81.06;99680.46;1659671;86;21049;-70
2022/02/22 06:37:16;;;;;;;13.85;4.58;;;;;;;4.00;81.07;99684.48;1659652;86;21056;-70
2022/02/22 06:39:42;;;;;;;13.48;6.65;;;;;;;4.01;81.08;99687.47;1658851;86;21066;-70
2022/02/22 06:42:08;;;;;;;14.80;7.65;;;;;;;4.02;81.08;99697.86;1653965;85;21056;-70
2022/02/22 06:44:36;;;;;;;19.55;7.42;;;;;;;4.03;81.10;99705.28;1661271;85;21169;-71
2022/02/22 06:47:03;;;;;;;13.90;4.60;;;;;;;4.02;81.12;99700.97;1657699;86;21019;-71
2022/02/22 06:49:29;;;;;;;18.98;5.50;;;;;;;4.04;81.16;99699.05;1660645;85;21083;-70
2022/02/22 06:51:55;;;;;;;9.23;4.03;;;;;;;4.08;81.15;99712.29;1660191;85;21547;-70
2022/02/22 06:54:21;;;;;;;13.55;4.15;;;;;;;4.11;81.19;99713.31;1672094;85;21012;-69
2022/02/22 06:56:48;;;;;;;16.30;6.37;;;;;;;4.11;81.20;99714.63;1667360;84;21167;-70
2022/02/22 06:59:14;;;;;;;11.10;3.80;;;;;;;4.11;81.21;99721.23;1673334;85;21064;-70
2022/02/22 07:01:40;;;;;;;15.88;6.47;;;;;;;4.10;81.23;99723.52;1686669;84;21016;-70
2022/02/22 07:04:06;;;;;;;8.60;3.37;;;;;;;4.09;81.27;99735.52;1676760;84;21130;-70
2022/02/22 07:06:33;;;;;;;13.80;6.53;;;;;;;4.05;81.30;99732.34;1665056;86;21022;-70
2022/02/22 07:08:59;;;;;;;23.22;8.15;;;;;;;4.01;81.35;99744.18;1667149;86;21966;-70
2022/02/22 07:11:25;;;;;;;14.68;6.30;;;;;;;3.98;81.41;99742.64;1665659;84;21477;-70
2022/02/22 07:13:51;;;;;;;11.05;6.37;;;;;;;3.98;81.43;99740.48;1666151;86;21097;-70
2022/02/22 07:16:17;;;;;;;14.80;6.33;;;;;;;3.95;81.47;99745.57;1667253;86;21164;-70
2022/02/22 07:18:43;;;;;;;16.30;6.47;;;;;;;3.96;81.49;99751.69;1693938;84;21074;-70
2022/02/22 07:21:09;;;;;;;22.55;6.87;;;;;;;3.95;81.50;99758.76;1704348;84;22210;-71
2022/02/22 07:23:35;;;;;;;14.98;5.17;;;;;;;3.96;81.55;99756.47;1704304;84;21562;-70
2022/02/22 07:26:01;;;;;;;10.05;4.17;;;;;;;3.96;81.61;99764.87;1702230;84;21724;-70
2022/02/22 07:28:27;;;;;;;11.12;4.00;;;;;;;3.95;81.65;99771.95;1701665;84;21056;-70
2022/02/22 07:30:53;;;;;;;8.98;3.52;;;;;;;3.96;81.71;99771.47;1702249;84;20967;-70
2022/02/22 07:33:19;;;;;;;18.27;5.15;;;;;;;3.95;81.76;99768.48;1701718;84;21183;-70
2022/02/22 07:35:46;;;;;;;13.00;5.58;;;;;;;3.95;81.82;99781.66;1702465;84;21034;-70
2022/02/22 07:38:12;;;;;;;16.90;6.25;;;;;;;3.97;81.88;99793.76;1698728;84;21078;-70
2022/02/22 07:40:38;;;;;;;15.53;5.42;;;;;;;3.98;81.94;99793.24;1680902;85;21022;-71
2022/02/22 07:43:04;;;;;;;13.70;5.35;;;;;;;3.99;82.00;99800.19;1681043;85;21007;-71
2022/02/22 07:45:30;;;;;;;10.30;4.50;;;;;;;4.03;82.07;99801.58;1669245;86;21119;-70
2022/02/22 07:47:56;;;;;;;10.18;3.50;;;;;;;4.08;82.13;99805.95;1684860;84;21564;-70
2022/02/22 07:50:22;;;;;;;8.43;3.45;;;;;;;4.13;82.17;99805.02;1704178;84;21534;-70
2022/02/22 07:52:48;;;;;;;8.43;2.72;;;;;;;4.16;82.23;99819.72;1704507;84;21084;-69
2022/02/22 07:55:14;;;;;;;15.72;5.28;;;;;;;4.17;82.25;99819.59;1704072;83;21013;-70
2022/02/22 07:57:40;;;;;;;10.50;2.72;;;;;;;4.19;82.26;99826.02;1693362;84;22144;-70
2022/02/22 08:00:08;;;;;;;18.52;5.00;;;;;;;4.19;82.28;99828.18;1702501;84;21059;-70
2022/02/22 08:02:35;;;;;;;16.20;6.03;;;;;;;4.18;82.28;99842.38;1702712;84;21075;-70
2022/02/22 08:05:01;;;;;;;15.88;4.28;;;;;;;4.18;82.25;99861.33;1702593;84;21036;-70
2022/02/22 08:07:27;;;;;;;16.40;3.90;;;;;;;4.19;82.21;99869.08;1706402;82;21490;-70
2022/02/22 08:09:53;;;;;;;10.18;3.27;;;;;;;4.21;82.17;99864.52;1704195;84;22194;-70
2022/02/22 08:12:19;;;;;;;11.63;3.95;;;;;;;4.25;82.11;99874.30;1704086;84;21014;-70
2022/02/22 08:14:45;;;;;;;10.40;3.40;;;;;;;4.28;82.05;99879.28;1704188;84;21262;-70
2022/02/22 08:17:11;;;;;;;23.42;5.55;;;;;;;4.32;81.98;99880.19;1700477;84;20971;-70
2022/02/22 08:19:37;;;;;;;17.75;4.20;;;;;;;4.36;81.90;99880.73;1677642;85;21670;-70
2022/02/22 08:22:04;;;;;;;15.35;3.95;;;;;;;4.37;81.84;99887.66;1687734;84;21188;-70
2022/02/22 08:24:30;;;;;;;20.60;4.37;;;;;;;4.35;81.78;99890.45;1695776;84;20999;-70
2022/02/22 08:26:57;;;;;;;13.53;3.67;;;;;;;4.31;81.71;99899.63;1660015;85;21130;-70
2022/02/22 08:29:24;;;;;;;16.12;4.33;;;;;;;4.28;81.63;99899.91;1678112;85;21019;-70
2022/02/22 20:02:20;;;;;;;35.85;9.73;;;;;;;3.49;74.12;100294.64;1645545;86;21040;-72
2022/02/22 20:04:48;;;;;;;31.60;8.60;;;;;;;3.47;74.08;100293.95;1636545;87;21366;-72
2022/02/22 20:07:15;;;;;;;29.25;8.80;;;;;;;3.46;74.04;100288.79;1642500;86;21051;-72
2022/02/22 20:09:41;;;;;;;40.15;11.22;;;;;;;3.43;74.01;100287.25;1653994;86;21106;-73
2022/02/22 20:12:09;;;;;;;57.67;18.37;;;;;;;3.43;74.00;100281.14;1639613;86;21041;-73
2022/02/22 20:14:35;;;;;;;37.85;10.15;;;;;;;3.44;74.00;100283.66;1648237;86;21678;-72
2022/02/22 20:17:01;;;;;;;29.98;8.65;;;;;;;3.44;73.96;100278.39;1641958;85;21513;-73
2022/02/22 20:19:30;;;;;;;32.03;7.90;;;;;;;3.48;73.93;100277.14;1639302;87;21579;-73
2022/02/22 20:21:55;;;;;;;28.70;7.62;;;;;;;3.49;73.89;100273.55;1639250;85;21132;-72
2022/02/22 20:24:21;;;;;;;23.47;6.95;;;;;;;3.53;73.89;100277.61;1656328;86;21033;-72
2022/02/22 20:26:47;;;;;;;30.37;8.78;;;;;;;3.57;73.86;100270.77;1647023;86;21085;-73
2022/02/22 20:29:13;;;;;;;28.12;7.25;;;;;;;3.60;73.87;100264.75;1636391;87;21602;-73
2022/02/22 20:31:39;;;;;;;19.67;6.87;;;;;;;3.66;73.85;100262.09;1629615;87;21616;-74
2022/02/22 20:34:06;;;;;;;27.70;8.18;;;;;;;3.69;73.86;100255.24;1609327;88;21522;-73
2022/02/22 20:36:32;;;;;;;46.65;13.50;;;;;;;3.72;73.84;100244.43;1607414;88;21538;-73
2022/02/22 20:38:58;;;;;;;205.98;56.40;;;;;;;3.74;73.82;100247.28;1606630;87;21731;-72
2022/02/22 20:41:24;;;;;;;231.95;64.00;;;;;;;3.76;73.81;100244.53;1635152;87;21135;-72
2022/02/22 20:43:50;;;;;;;137.57;34.13;;;;;;;3.77;73.79;100242.22;1635354;87;21120;-73
2022/02/22 20:46:16;;;;;;;55.43;14.33;;;;;;;3.77;73.75;100243.53;1634798;87;21036;-73
2022/02/22 20:48:42;;;;;;;31.93;9.80;;;;;;;3.76;73.71;100236.61;1614530;87;21608;-73
2022/02/22 20:51:09;;;;;;;35.35;8.40;;;;;;;3.77;73.69;100236.95;1615622;87;21099;-74
2022/02/22 20:53:35;;;;;;;34.35;7.40;;;;;;;3.75;73.65;100244.16;1615300;87;21098;-73
2022/02/22 20:56:01;;;;;;;28.20;7.28;;;;;;;3.74;73.62;100237.21;1614968;87;21017;-73
2022/02/22 20:58:27;;;;;;;65.47;15.95;;;;;;;3.72;73.58;100239.16;1629847;87;21020;-74
2022/02/22 21:00:53;;;;;;;33.45;7.85;;;;;;;3.74;73.55;100247.76;1619194;86;22242;-74
2022/02/22 21:03:19;;;;;;;110.03;19.30;;;;;;;3.75;73.47;100240.21;1641685;86;21563;-74
2022/02/22 21:05:45;;;;;;;90.53;18.60;;;;;;;3.77;73.43;100241.74;1640944;86;21811;-74
2022/02/22 21:08:11;;;;;;;118.77;20.55;;;;;;;3.79;73.40;100235.03;1637945;86;21088;-74
2022/02/22 21:10:40;;;;;;;27.37;6.40;;;;;;;3.82;73.35;100229.02;1629209;86;21699;-74
2022/02/22 21:13:05;;;;;;;14.75;4.83;;;;;;;3.85;73.37;100227.91;1630397;86;21008;-74
2022/02/22 21:15:31;;;;;;;20.70;5.95;;;;;;;3.87;73.36;100221.52;1632426;86;21510;-74
2022/02/22 21:17:57;;;;;;;13.62;4.37;;;;;;;3.89;73.36;100213.02;1627854;86;21149;-74
2022/02/22 21:20:23;;;;;;;21.97;5.45;;;;;;;3.92;73.35;100206.63;1643177;86;20926;-73
2022/02/22 21:22:49;;;;;;;15.88;4.83;;;;;;;3.94;73.32;100207.35;1634573;86;21068;-74
2022/02/22 21:25:15;;;;;;;24.10;5.30;;;;;;;3.97;73.33;100203.13;1626783;86;21109;-73
2022/02/22 21:27:42;;;;;;;29.85;6.90;;;;;;;3.98;73.28;100202.13;1618175;86;21068;-74
2022/02/22 21:30:09;;;;;;;53.35;14.18;;;;;;;3.96;73.28;100202.28;1633284;86;21375;-74
2022/02/22 21:32:35;;;;;;;18.77;4.83;;;;;;;3.97;73.25;100197.84;1627796;86;21055;-73
2022/02/22 21:35:02;;;;;;;13.75;4.58;;;;;;;3.96;73.27;100201.45;1625951;88;21054;-73
2022/02/22 21:37:29;;;;;;;19.02;5.47;;;;;;;3.97;73.26;100204.44;1624546;88;21058;-73
2022/02/22 21:39:55;;;;;;;17.10;5.28;;;;;;;3.95;73.23;100199.77;1619393;88;22186;-74
2022/02/22 21:42:22;;;;;;;18.42;4.35;;;;;;;3.94;73.23;100199.44;1620759;88;22024;-73
2022/02/22 21:44:48;;;;;;;12.88;3.02;;;;;;;3.93;73.23;100193.80;1629813;86;21114;-73
2022/02/22 21:47:14;;;;;;;18.95;4.40;;;;;;;3.91;73.26;100191.77;1632157;87;21055;-73
2022/02/22 21:49:40;;;;;;;24.52;6.80;;;;;;;3.90;73.30;100190.11;1629720;86;21081;-73
2022/02/22 21:52:07;;;;;;;21.87;6.17;;;;;;;3.90;73.33;100186.16;1637598;86;21075;-73
2022/02/22 21:54:34;;;;;;;89.35;18.17;;;;;;;3.89;73.42;100185.80;1617048;88;21145;-73
2022/02/22 21:57:03;;;;;;;84.60;18.98;;;;;;;3.91;73.50;100187.80;1632077;87;21118;-73
2022/02/22 21:59:27;;;;;;;115.88;28.55;;;;;;;3.92;73.62;100180.25;1645234;86;21056;-73
2022/02/22 22:01:54;;;;;;;114.30;30.77;;;;;;;3.92;73.69;100175.81;1645355;86;21386;-74
2022/02/22 22:04:20;;;;;;;26.40;9.10;;;;;;;3.94;73.77;100167.78;1631741;87;21081;-73
2022/02/22 22:06:46;;;;;;;35.23;13.53;;;;;;;3.92;73.87;100163.11;1629492;87;21618;-73
2022/02/22 22:09:12;;;;;;;29.80;11.48;;;;;;;3.91;73.95;100162.75;1620831;88;21534;-74
2022/02/22 22:11:39;;;;;;;22.42;7.50;;;;;;;3.86;74.02;100156.58;1620805;88;21686;-74
2022/02/22 22:14:06;;;;;;;26.27;7.83;;;;;;;3.83;74.09;100152.05;1620370;88;21063;-74
2022/02/22 22:16:32;;;;;;;28.83;10.78;;;;;;;3.78;74.15;100145.84;1610395;88;21093;-73
2022/02/22 22:18:58;;;;;;;26.42;7.55;;;;;;;3.76;74.23;100144.31;1620840;88;21731;-73
2022/02/22 22:21:24;;;;;;;30.57;7.35;;;;;;;3.74;74.30;100139.64;1624232;88;20939;-74
2022/02/22 22:23:50;;;;;;;23.70;7.17;;;;;;;3.71;74.37;100131.52;1618705;88;21094;-74
2022/02/22 22:26:16;;;;;;;17.65;5.47;;;;;;;3.68;74.48;100123.88;1622639;86;21528;-74
2022/02/22 22:28:42;;;;;;;18.07;5.65;;;;;;;3.69;74.57;100112.85;1624224;88;21572;-74
2022/02/22 22:31:10;;;;;;;23.80;4.95;;;;;;;3.70;74.70;100106.59;1618288;88;21912;-74
2022/02/22 22:33:36;;;;;;;15.35;5.95;;;;;;;3.71;74.81;100112.22;1612482;86;21305;-74
2022/02/22 22:36:04;;;;;;;27.48;10.32;;;;;;;3.70;74.90;100098.67;1624860;86;21576;-74
2022/02/22 22:38:30;;;;;;;48.52;14.60;;;;;;;3.67;75.01;100096.31;1617015;88;21038;-73
2022/02/22 22:40:56;;;;;;;25.82;8.20;;;;;;;3.64;75.12;100093.95;1606190;87;21527;-74
2022/02/22 22:43:22;;;;;;;21.62;6.55;;;;;;;3.62;75.22;100090.14;1618625;86;21224;-71
2022/02/22 22:45:48;;;;;;;25.37;7.85;;;;;;;3.61;75.33;100091.58;1624331;87;21751;-73
2022/02/22 22:48:14;;;;;;;19.95;5.58;;;;;;;3.60;75.44;100096.49;1625190;88;21037;-74
2022/02/22 22:50:40;;;;;;;15.78;5.53;;;;;;;3.60;75.51;100096.49;1603230;88;21073;-73
2022/02/22 22:53:06;;;;;;;18.02;5.20;;;;;;;3.58;75.59;100083.94;1601686;88;21050;-74
2022/02/22 22:55:32;;;;;;;16.97;6.15;;;;;;;3.57;75.68;100076.98;1619519;88;21248;-73
2022/02/22 22:57:58;;;;;;;18.75;5.80;;;;;;;3.57;75.78;100072.55;1621384;87;21079;-74